sensor_id;sensor_type;location;lat;lon;timestamp;temperature;humidity
66740;DHT22;53653;52.188;8.602;2022-08-20T00:01:34;22.41;71.78
66740;DHT22;53653;52.188;8.602;2022-08-20T00:04:00;22.44;71.85
66740;DHT22;53653;52.188;8.602;2022-08-20T00:06:26;22.48;71.73
66740;DHT22;53653;52.188;8.602;2022-08-20T00:08:51;22.47;71.71
66740;DHT22;53653;52.188;8.602;2022-08-20T00:11:21;22.45;71.77
66740;DHT22;53653;52.188;8.602;2022-08-20T00:13:54;22.54;71.76
66740;DHT22;53653;52.188;8.602;2022-08-20T00:16:22;22.55;71.55
66740;DHT22;53653;52.188;8.602;2022-08-20T00:18:48;22.52;71.60
66740;DHT22;53653;52.188;8.602;2022-08-20T00:21:16;22.54;71.88
66740;DHT22;53653;52.188;8.602;2022-08-20T00:23:45;22.49;71.79
66740;DHT22;53653;52.188;8.602;2022-08-20T00:26:11;22.54;71.87
66740;DHT22;53653;52.188;8.602;2022-08-20T00:28:38;22.47;72.27
66740;DHT22;53653;52.188;8.602;2022-08-20T00:31:06;22.48;72.26
66740;DHT22;53653;52.188;8.602;2022-08-20T00:33:33;22.51;72.20
66740;DHT22;53653;52.188;8.602;2022-08-20T00:35:58;22.55;71.84
66740;DHT22;53653;52.188;8.602;2022-08-20T00:38:32;22.58;71.69
66740;DHT22;53653;52.188;8.602;2022-08-20T00:40:59;22.57;71.62
66740;DHT22;53653;52.188;8.602;2022-08-20T00:45:56;22.49;71.91
66740;DHT22;53653;52.188;8.602;2022-08-20T00:48:30;22.48;72.12
66740;DHT22;53653;52.188;8.602;2022-08-20T00:51:05;22.45;72.17
66740;DHT22;53653;52.188;8.602;2022-08-20T00:53:32;22.45;72.35
66740;DHT22;53653;52.188;8.602;2022-08-20T00:55:59;22.38;72.65
66740;DHT22;53653;52.188;8.602;2022-08-20T00:58:25;22.37;72.80
66740;DHT22;53653;52.188;8.602;2022-08-20T01:00:52;22.37;72.66
66740;DHT22;53653;52.188;8.602;2022-08-20T01:03:18;22.37;72.84
66740;DHT22;53653;52.188;8.602;2022-08-20T01:05:47;22.31;73.21
66740;DHT22;53653;52.188;8.602;2022-08-20T01:08:14;22.20;73.59
66740;DHT22;53653;52.188;8.602;2022-08-20T01:10:42;22.07;74.37
66740;DHT22;53653;52.188;8.602;2022-08-20T01:13:16;22.01;74.75
66740;DHT22;53653;52.188;8.602;2022-08-20T01:15:44;21.96;74.92
66740;DHT22;53653;52.188;8.602;2022-08-20T01:18:13;21.90;75.05
66740;DHT22;53653;52.188;8.602;2022-08-20T01:20:43;21.90;75.25
66740;DHT22;53653;52.188;8.602;2022-08-20T01:26:10;21.85;75.80
66740;DHT22;53653;52.188;8.602;2022-08-20T01:28:59;21.85;75.76
66740;DHT22;53653;52.188;8.602;2022-08-20T01:31:31;21.85;75.96
66740;DHT22;53653;52.188;8.602;2022-08-20T01:34:00;21.82;76.12
66740;DHT22;53653;52.188;8.602;2022-08-20T01:36:30;21.82;76.29
66740;DHT22;53653;52.188;8.602;2022-08-20T01:38:58;21.82;76.28
66740;DHT22;53653;52.188;8.602;2022-08-20T01:44:13;21.85;76.11
66740;DHT22;53653;52.188;8.602;2022-08-20T01:46:40;21.85;76.43
66740;DHT22;53653;52.188;8.602;2022-08-20T01:49:31;21.88;76.08
66740;DHT22;53653;52.188;8.602;2022-08-20T01:52:00;21.88;76.35
66740;DHT22;53653;52.188;8.602;2022-08-20T01:54:26;21.85;76.42
66740;DHT22;53653;52.188;8.602;2022-08-20T01:57:04;21.83;76.11
66740;DHT22;53653;52.188;8.602;2022-08-20T01:59:31;21.86;76.38
66740;DHT22;53653;52.188;8.602;2022-08-20T02:01:57;21.82;76.42
66740;DHT22;53653;52.188;8.602;2022-08-20T02:04:23;21.76;76.84
66740;DHT22;53653;52.188;8.602;2022-08-20T02:06:53;21.78;76.77
66740;DHT22;53653;52.188;8.602;2022-08-20T02:09:20;21.73;76.76
66740;DHT22;53653;52.188;8.602;2022-08-20T02:11:46;21.76;76.62
66740;DHT22;53653;52.188;8.602;2022-08-20T02:14:13;21.75;76.66
66740;DHT22;53653;52.188;8.602;2022-08-20T02:16:43;21.73;76.95
66740;DHT22;53653;52.188;8.602;2022-08-20T02:19:21;21.72;76.91
66740;DHT22;53653;52.188;8.602;2022-08-20T02:21:55;21.67;77.42
66740;DHT22;53653;52.188;8.602;2022-08-20T02:24:21;21.69;76.99
66740;DHT22;53653;52.188;8.602;2022-08-20T02:26:47;21.65;77.25
66740;DHT22;53653;52.188;8.602;2022-08-20T02:29:14;21.61;77.58
66740;DHT22;53653;52.188;8.602;2022-08-20T02:31:41;21.59;77.78
66740;DHT22;53653;52.188;8.602;2022-08-20T02:34:09;21.56;77.98
66740;DHT22;53653;52.188;8.602;2022-08-20T02:36:36;21.53;77.75
66740;DHT22;53653;52.188;8.602;2022-08-20T02:39:06;21.56;77.73
66740;DHT22;53653;52.188;8.602;2022-08-20T02:41:36;21.53;77.71
66740;DHT22;53653;52.188;8.602;2022-08-20T02:44:02;21.53;77.94
66740;DHT22;53653;52.188;8.602;2022-08-20T02:46:29;21.53;77.70
66740;DHT22;53653;52.188;8.602;2022-08-20T02:48:54;21.53;77.49
66740;DHT22;53653;52.188;8.602;2022-08-20T02:51:20;21.52;77.61
66740;DHT22;53653;52.188;8.602;2022-08-20T02:53:45;21.48;77.81
66740;DHT22;53653;52.188;8.602;2022-08-20T02:56:11;21.37;78.61
66740;DHT22;53653;52.188;8.602;2022-08-20T02:58:37;21.32;78.53
66740;DHT22;53653;52.188;8.602;2022-08-20T03:01:05;21.30;78.82
66740;DHT22;53653;52.188;8.602;2022-08-20T03:03:32;21.30;78.71
66740;DHT22;53653;52.188;8.602;2022-08-20T03:05:57;21.28;78.94
66740;DHT22;53653;52.188;8.602;2022-08-20T03:08:24;21.27;78.99
66740;DHT22;53653;52.188;8.602;2022-08-20T03:10:50;21.30;78.81
66740;DHT22;53653;52.188;8.602;2022-08-20T03:13:17;21.25;78.97
66740;DHT22;53653;52.188;8.602;2022-08-20T03:15:46;21.22;79.02
66740;DHT22;53653;52.188;8.602;2022-08-20T03:18:14;21.30;78.63
66740;DHT22;53653;52.188;8.602;2022-08-20T03:20:40;21.27;78.89
66740;DHT22;53653;52.188;8.602;2022-08-20T03:23:06;21.24;78.93
66740;DHT22;53653;52.188;8.602;2022-08-20T03:25:31;21.22;78.91
66740;DHT22;53653;52.188;8.602;2022-08-20T03:27:57;21.27;78.46
66740;DHT22;53653;52.188;8.602;2022-08-20T03:30:26;21.25;78.14
66740;DHT22;53653;52.188;8.602;2022-08-20T03:32:52;21.22;78.59
66740;DHT22;53653;52.188;8.602;2022-08-20T03:35:20;21.25;78.33
66740;DHT22;53653;52.188;8.602;2022-08-20T03:37:45;21.21;78.79
66740;DHT22;53653;52.188;8.602;2022-08-20T03:40:14;21.21;78.78
66740;DHT22;53653;52.188;8.602;2022-08-20T03:42:40;21.21;78.96
66740;DHT22;53653;52.188;8.602;2022-08-20T03:45:07;21.22;78.79
66740;DHT22;53653;52.188;8.602;2022-08-20T03:47:33;21.14;79.01
66740;DHT22;53653;52.188;8.602;2022-08-20T03:49:59;21.07;79.42
66740;DHT22;53653;52.188;8.602;2022-08-20T03:52:25;21.00;80.08
66740;DHT22;53653;52.188;8.602;2022-08-20T03:54:51;20.98;80.28
66740;DHT22;53653;52.188;8.602;2022-08-20T03:57:16;21.01;80.10
66740;DHT22;53653;52.188;8.602;2022-08-20T03:59:42;20.98;80.34
66740;DHT22;53653;52.188;8.602;2022-08-20T04:02:10;20.94;80.49
66740;DHT22;53653;52.188;8.602;2022-08-20T04:04:36;20.94;80.87
66740;DHT22;53653;52.188;8.602;2022-08-20T04:07:17;20.94;81.10
66740;DHT22;53653;52.188;8.602;2022-08-20T04:09:55;20.94;81.39
66740;DHT22;53653;52.188;8.602;2022-08-20T04:12:22;20.90;81.52
66740;DHT22;53653;52.188;8.602;2022-08-20T04:14:49;20.88;81.84
66740;DHT22;53653;52.188;8.602;2022-08-20T04:17:15;20.93;81.70
66740;DHT22;53653;52.188;8.602;2022-08-20T04:19:42;20.86;82.43
66740;DHT22;53653;52.188;8.602;2022-08-20T04:22:08;20.83;82.52
66740;DHT22;53653;52.188;8.602;2022-08-20T04:24:34;20.81;82.46
66740;DHT22;53653;52.188;8.602;2022-08-20T04:27:01;20.86;82.06
66740;DHT22;53653;52.188;8.602;2022-08-20T04:29:28;20.80;82.37
66740;DHT22;53653;52.188;8.602;2022-08-20T04:31:54;20.73;83.29
66740;DHT22;53653;52.188;8.602;2022-08-20T04:34:20;20.65;84.23
66740;DHT22;53653;52.188;8.602;2022-08-20T04:36:46;20.63;83.90
66740;DHT22;53653;52.188;8.602;2022-08-20T04:39:13;20.63;83.74
66740;DHT22;53653;52.188;8.602;2022-08-20T04:41:38;20.66;83.81
66740;DHT22;53653;52.188;8.602;2022-08-20T04:44:04;20.66;83.49
66740;DHT22;53653;52.188;8.602;2022-08-20T04:46:29;20.67;83.28
66740;DHT22;53653;52.188;8.602;2022-08-20T04:48:56;20.67;83.00
66740;DHT22;53653;52.188;8.602;2022-08-20T04:51:22;20.60;83.65
66740;DHT22;53653;52.188;8.602;2022-08-20T04:53:48;20.53;84.29
66740;DHT22;53653;52.188;8.602;2022-08-20T04:56:14;20.50;84.56
66740;DHT22;53653;52.188;8.602;2022-08-20T04:58:39;20.47;84.71
66740;DHT22;53653;52.188;8.602;2022-08-20T05:01:09;20.47;84.70
66740;DHT22;53653;52.188;8.602;2022-08-20T05:03:37;20.40;85.48
66740;DHT22;53653;52.188;8.602;2022-08-20T05:06:04;20.40;85.69
66740;DHT22;53653;52.188;8.602;2022-08-20T05:08:30;20.32;85.92
66740;DHT22;53653;52.188;8.602;2022-08-20T05:10:56;20.32;86.14
66740;DHT22;53653;52.188;8.602;2022-08-20T05:13:22;20.30;86.53
66740;DHT22;53653;52.188;8.602;2022-08-20T05:15:48;20.32;86.18
66740;DHT22;53653;52.188;8.602;2022-08-20T05:18:17;20.33;86.35
66740;DHT22;53653;52.188;8.602;2022-08-20T05:20:44;20.36;86.38
66740;DHT22;53653;52.188;8.602;2022-08-20T05:23:12;20.32;86.49
66740;DHT22;53653;52.188;8.602;2022-08-20T05:25:39;20.30;87.13
66740;DHT22;53653;52.188;8.602;2022-08-20T05:28:07;20.37;87.07
66740;DHT22;53653;52.188;8.602;2022-08-20T05:30:35;20.43;86.47
66740;DHT22;53653;52.188;8.602;2022-08-20T05:33:03;20.46;86.55
66740;DHT22;53653;52.188;8.602;2022-08-20T05:35:30;20.46;85.44
66740;DHT22;53653;52.188;8.602;2022-08-20T05:37:55;20.47;86.04
66740;DHT22;53653;52.188;8.602;2022-08-20T05:40:22;20.46;85.99
66740;DHT22;53653;52.188;8.602;2022-08-20T05:42:48;20.47;86.18
66740;DHT22;53653;52.188;8.602;2022-08-20T05:45:14;20.46;85.93
66740;DHT22;53653;52.188;8.602;2022-08-20T05:47:41;20.40;86.59
66740;DHT22;53653;52.188;8.602;2022-08-20T05:50:08;20.43;86.84
66740;DHT22;53653;52.188;8.602;2022-08-20T05:52:34;20.46;86.44
66740;DHT22;53653;52.188;8.602;2022-08-20T05:54:59;20.47;86.43
66740;DHT22;53653;52.188;8.602;2022-08-20T05:57:25;20.45;86.90
66740;DHT22;53653;52.188;8.602;2022-08-20T05:59:50;20.43;87.25
66740;DHT22;53653;52.188;8.602;2022-08-20T06:02:16;20.43;87.71
66740;DHT22;53653;52.188;8.602;2022-08-20T06:05:00;20.47;87.35
66740;DHT22;53653;52.188;8.602;2022-08-20T06:07:26;20.50;87.01
66740;DHT22;53653;52.188;8.602;2022-08-20T06:09:51;20.55;86.87
66740;DHT22;53653;52.188;8.602;2022-08-20T06:12:17;20.59;86.68
66740;DHT22;53653;52.188;8.602;2022-08-20T06:14:44;20.59;86.14
66740;DHT22;53653;52.188;8.602;2022-08-20T06:17:16;20.63;85.92
66740;DHT22;53653;52.188;8.602;2022-08-20T06:19:43;20.60;86.32
66740;DHT22;53653;52.188;8.602;2022-08-20T06:22:09;20.60;86.60
66740;DHT22;53653;52.188;8.602;2022-08-20T06:24:35;20.60;86.07
66740;DHT22;53653;52.188;8.602;2022-08-20T06:27:02;20.59;86.35
66740;DHT22;53653;52.188;8.602;2022-08-20T06:29:29;20.56;86.01
66740;DHT22;53653;52.188;8.602;2022-08-20T06:31:55;20.55;86.43
66740;DHT22;53653;52.188;8.602;2022-08-20T06:34:21;20.49;86.42
66740;DHT22;53653;52.188;8.602;2022-08-20T06:36:47;20.40;86.29
66740;DHT22;53653;52.188;8.602;2022-08-20T06:39:13;20.42;86.57
66740;DHT22;53653;52.188;8.602;2022-08-20T06:41:39;20.36;86.35
66740;DHT22;53653;52.188;8.602;2022-08-20T06:44:05;20.35;86.29
66740;DHT22;53653;52.188;8.602;2022-08-20T06:46:33;20.39;86.55
66740;DHT22;53653;52.188;8.602;2022-08-20T06:49:00;20.47;86.01
66740;DHT22;53653;52.188;8.602;2022-08-20T06:51:25;20.53;84.84
66740;DHT22;53653;52.188;8.602;2022-08-20T06:53:51;20.59;85.05
66740;DHT22;53653;52.188;8.602;2022-08-20T06:56:16;20.65;84.99
66740;DHT22;53653;52.188;8.602;2022-08-20T06:58:42;20.70;85.17
66740;DHT22;53653;52.188;8.602;2022-08-20T07:01:09;20.79;84.44
66740;DHT22;53653;52.188;8.602;2022-08-20T07:03:35;20.94;84.38
66740;DHT22;53653;52.188;8.602;2022-08-20T07:06:02;20.97;84.14
66740;DHT22;53653;52.188;8.602;2022-08-20T07:08:28;20.91;83.55
66740;DHT22;53653;52.188;8.602;2022-08-20T07:10:54;20.84;84.58
66740;DHT22;53653;52.188;8.602;2022-08-20T07:13:20;20.88;83.69
66740;DHT22;53653;52.188;8.602;2022-08-20T07:15:45;20.80;84.39
66740;DHT22;53653;52.188;8.602;2022-08-20T07:18:12;20.72;85.27
66740;DHT22;53653;52.188;8.602;2022-08-20T07:20:39;20.77;84.37
66740;DHT22;53653;52.188;8.602;2022-08-20T07:23:05;20.80;84.00
66740;DHT22;53653;52.188;8.602;2022-08-20T07:25:32;20.86;84.08
66740;DHT22;53653;52.188;8.602;2022-08-20T07:28:12;20.87;83.52
66740;DHT22;53653;52.188;8.602;2022-08-20T07:30:38;20.84;83.63
66740;DHT22;53653;52.188;8.602;2022-08-20T07:33:27;20.77;84.08
66740;DHT22;53653;52.188;8.602;2022-08-20T07:35:54;20.81;84.38
66740;DHT22;53653;52.188;8.602;2022-08-20T07:38:22;20.95;83.68
66740;DHT22;53653;52.188;8.602;2022-08-20T07:40:51;21.01;83.83
66740;DHT22;53653;52.188;8.602;2022-08-20T07:43:16;20.97;84.26
66740;DHT22;53653;52.188;8.602;2022-08-20T07:45:42;21.01;84.22
66740;DHT22;53653;52.188;8.602;2022-08-20T07:48:11;21.10;83.37
66740;DHT22;53653;52.188;8.602;2022-08-20T07:50:37;21.25;83.45
66740;DHT22;53653;52.188;8.602;2022-08-20T07:53:03;21.37;83.48
66740;DHT22;53653;52.188;8.602;2022-08-20T07:55:29;21.51;82.18
66740;DHT22;53653;52.188;8.602;2022-08-20T07:57:57;21.90;82.40
66740;DHT22;53653;52.188;8.602;2022-08-20T08:00:23;22.20;79.81
66740;DHT22;53653;52.188;8.602;2022-08-20T08:02:50;22.31;79.55
66740;DHT22;53653;52.188;8.602;2022-08-20T08:05:16;22.31;78.31
66740;DHT22;53653;52.188;8.602;2022-08-20T08:07:42;22.13;79.69
66740;DHT22;53653;52.188;8.602;2022-08-20T08:10:10;22.18;80.07
66740;DHT22;53653;52.188;8.602;2022-08-20T08:12:48;22.71;79.21
66740;DHT22;53653;52.188;8.602;2022-08-20T08:15:17;23.17;76.80
66740;DHT22;53653;52.188;8.602;2022-08-20T08:17:45;23.46;74.44
66740;DHT22;53653;52.188;8.602;2022-08-20T08:20:13;24.04;74.11
66740;DHT22;53653;52.188;8.602;2022-08-20T08:22:39;23.50;73.62
66740;DHT22;53653;52.188;8.602;2022-08-20T08:25:12;23.10;75.52
66740;DHT22;53653;52.188;8.602;2022-08-20T08:27:39;22.76;76.36
66740;DHT22;53653;52.188;8.602;2022-08-20T08:30:05;22.72;75.84
66740;DHT22;53653;52.188;8.602;2022-08-20T08:32:31;22.48;77.45
66740;DHT22;53653;52.188;8.602;2022-08-20T08:35:01;22.64;76.38
66740;DHT22;53653;52.188;8.602;2022-08-20T08:37:27;22.72;76.15
66740;DHT22;53653;52.188;8.602;2022-08-20T08:39:52;22.75;75.86
66740;DHT22;53653;52.188;8.602;2022-08-20T08:44:46;22.76;76.52
66740;DHT22;53653;52.188;8.602;2022-08-20T08:47:24;22.73;76.52
66740;DHT22;53653;52.188;8.602;2022-08-20T08:49:50;22.67;77.09
66740;DHT22;53653;52.188;8.602;2022-08-20T08:52:18;22.49;77.22
66740;DHT22;53653;52.188;8.602;2022-08-20T08:54:50;22.36;78.65
66740;DHT22;53653;52.188;8.602;2022-08-20T08:57:16;22.27;79.89
66740;DHT22;53653;52.188;8.602;2022-08-20T08:59:43;22.28;78.92
66740;DHT22;53653;52.188;8.602;2022-08-20T09:02:20;22.36;77.46
66740;DHT22;53653;52.188;8.602;2022-08-20T09:04:47;22.36;77.99
66740;DHT22;53653;52.188;8.602;2022-08-20T09:07:16;22.79;76.22
66740;DHT22;53653;52.188;8.602;2022-08-20T09:09:46;23.51;73.80
66740;DHT22;53653;52.188;8.602;2022-08-20T09:12:15;24.06;71.92
66740;DHT22;53653;52.188;8.602;2022-08-20T09:14:43;23.75;72.01
66740;DHT22;53653;52.188;8.602;2022-08-20T09:17:14;23.34;73.82
66740;DHT22;53653;52.188;8.602;2022-08-20T09:19:40;23.24;74.93
66740;DHT22;53653;52.188;8.602;2022-08-20T09:22:10;23.24;73.82
66740;DHT22;53653;52.188;8.602;2022-08-20T09:24:36;23.23;74.87
66740;DHT22;53653;52.188;8.602;2022-08-20T09:27:02;23.07;74.88
66740;DHT22;53653;52.188;8.602;2022-08-20T09:29:27;23.02;75.82
66740;DHT22;53653;52.188;8.602;2022-08-20T09:32:15;23.15;74.47
66740;DHT22;53653;52.188;8.602;2022-08-20T09:34:43;22.82;73.88
66740;DHT22;53653;52.188;8.602;2022-08-20T09:37:09;23.49;73.27
66740;DHT22;53653;52.188;8.602;2022-08-20T09:39:35;23.54;72.27
66740;DHT22;53653;52.188;8.602;2022-08-20T09:42:19;23.55;72.15
66740;DHT22;53653;52.188;8.602;2022-08-20T09:44:45;23.30;72.55
66740;DHT22;53653;52.188;8.602;2022-08-20T09:47:11;23.20;72.70
66740;DHT22;53653;52.188;8.602;2022-08-20T09:49:36;23.27;71.68
66740;DHT22;53653;52.188;8.602;2022-08-20T09:52:04;23.37;71.10
66740;DHT22;53653;52.188;8.602;2022-08-20T09:54:31;23.24;71.69
66740;DHT22;53653;52.188;8.602;2022-08-20T09:56:59;23.39;72.33
66740;DHT22;53653;52.188;8.602;2022-08-20T09:59:27;23.19;72.29
66740;DHT22;53653;52.188;8.602;2022-08-20T10:01:53;23.60;72.28
66740;DHT22;53653;52.188;8.602;2022-08-20T10:04:18;24.09;69.07
66740;DHT22;53653;52.188;8.602;2022-08-20T10:06:44;24.50;67.43
66740;DHT22;53653;52.188;8.602;2022-08-20T10:09:09;24.66;66.81
66740;DHT22;53653;52.188;8.602;2022-08-20T10:11:35;24.83;65.27
66740;DHT22;53653;52.188;8.602;2022-08-20T10:14:01;25.07;65.31
66740;DHT22;53653;52.188;8.602;2022-08-20T10:16:26;25.68;64.87
66740;DHT22;53653;52.188;8.602;2022-08-20T10:18:52;25.82;63.70
66740;DHT22;53653;52.188;8.602;2022-08-20T10:21:20;25.80;63.37
66740;DHT22;53653;52.188;8.602;2022-08-20T10:23:46;25.48;64.97
66740;DHT22;53653;52.188;8.602;2022-08-20T10:26:11;25.04;65.20
66740;DHT22;53653;52.188;8.602;2022-08-20T10:28:38;24.90;65.61
66740;DHT22;53653;52.188;8.602;2022-08-20T10:31:07;25.65;63.96
66740;DHT22;53653;52.188;8.602;2022-08-20T10:33:33;25.52;63.44
66740;DHT22;53653;52.188;8.602;2022-08-20T10:36:08;25.35;63.01
66740;DHT22;53653;52.188;8.602;2022-08-20T10:38:34;26.16;61.46
66740;DHT22;53653;52.188;8.602;2022-08-20T10:41:00;25.82;62.48
66740;DHT22;53653;52.188;8.602;2022-08-20T10:43:25;25.35;63.95
66740;DHT22;53653;52.188;8.602;2022-08-20T10:45:51;24.59;66.69
66740;DHT22;53653;52.188;8.602;2022-08-20T10:48:16;23.89;69.00
66740;DHT22;53653;52.188;8.602;2022-08-20T10:50:42;23.77;69.79
66740;DHT22;53653;52.188;8.602;2022-08-20T10:53:07;24.09;68.32
66740;DHT22;53653;52.188;8.602;2022-08-20T10:55:33;24.37;67.25
66740;DHT22;53653;52.188;8.602;2022-08-20T10:57:58;24.74;64.81
66740;DHT22;53653;52.188;8.602;2022-08-20T11:00:24;25.08;64.45
66740;DHT22;53653;52.188;8.602;2022-08-20T11:02:49;25.07;63.25
66740;DHT22;53653;52.188;8.602;2022-08-20T11:05:15;25.48;61.44
66740;DHT22;53653;52.188;8.602;2022-08-20T11:07:43;26.14;59.31
66740;DHT22;53653;52.188;8.602;2022-08-20T11:10:09;26.61;57.84
66740;DHT22;53653;52.188;8.602;2022-08-20T11:12:35;26.27;59.67
66740;DHT22;53653;52.188;8.602;2022-08-20T11:15:00;25.90;60.22
66740;DHT22;53653;52.188;8.602;2022-08-20T11:17:31;25.79;59.92
66740;DHT22;53653;52.188;8.602;2022-08-20T11:19:58;25.46;60.26
66740;DHT22;53653;52.188;8.602;2022-08-20T11:22:25;24.94;62.60
66740;DHT22;53653;52.188;8.602;2022-08-20T11:24:51;24.69;64.62
66740;DHT22;53653;52.188;8.602;2022-08-20T11:27:28;24.70;64.59
66740;DHT22;53653;52.188;8.602;2022-08-20T11:29:54;25.21;63.52
66740;DHT22;53653;52.188;8.602;2022-08-20T11:32:21;25.68;59.91
66740;DHT22;53653;52.188;8.602;2022-08-20T11:34:47;25.98;57.64
66740;DHT22;53653;52.188;8.602;2022-08-20T11:37:13;25.85;56.17
66740;DHT22;53653;52.188;8.602;2022-08-20T11:39:40;26.33;55.15
66740;DHT22;53653;52.188;8.602;2022-08-20T11:42:05;25.35;58.27
66740;DHT22;53653;52.188;8.602;2022-08-20T11:44:31;25.41;60.05
66740;DHT22;53653;52.188;8.602;2022-08-20T11:47:01;25.70;59.44
66740;DHT22;53653;52.188;8.602;2022-08-20T11:49:36;25.45;58.53
66740;DHT22;53653;52.188;8.602;2022-08-20T11:52:02;25.53;57.46
66740;DHT22;53653;52.188;8.602;2022-08-20T11:54:28;25.49;56.02
66740;DHT22;53653;52.188;8.602;2022-08-20T11:56:54;26.03;56.13
66740;DHT22;53653;52.188;8.602;2022-08-20T11:59:24;25.61;56.63
66740;DHT22;53653;52.188;8.602;2022-08-20T12:01:50;25.55;56.53
66740;DHT22;53653;52.188;8.602;2022-08-20T12:04:17;25.52;57.11
66740;DHT22;53653;52.188;8.602;2022-08-20T12:06:43;26.07;55.74
66740;DHT22;53653;52.188;8.602;2022-08-20T12:09:08;26.69;54.47
66740;DHT22;53653;52.188;8.602;2022-08-20T12:11:33;27.06;51.53
66740;DHT22;53653;52.188;8.602;2022-08-20T12:14:02;27.23;52.52
66740;DHT22;53653;52.188;8.602;2022-08-20T12:16:27;27.78;50.30
66740;DHT22;53653;52.188;8.602;2022-08-20T12:18:53;27.85;50.31
66740;DHT22;53653;52.188;8.602;2022-08-20T12:21:18;27.77;50.58
66740;DHT22;53653;52.188;8.602;2022-08-20T12:23:44;27.94;47.60
66740;DHT22;53653;52.188;8.602;2022-08-20T12:26:10;27.72;48.25
66740;DHT22;53653;52.188;8.602;2022-08-20T12:28:36;27.99;46.32
66740;DHT22;53653;52.188;8.602;2022-08-20T12:31:02;28.01;47.10
66740;DHT22;53653;52.188;8.602;2022-08-20T12:33:27;27.77;49.13
66740;DHT22;53653;52.188;8.602;2022-08-20T12:35:53;27.72;49.77
66740;DHT22;53653;52.188;8.602;2022-08-20T12:38:18;27.31;49.59
66740;DHT22;53653;52.188;8.602;2022-08-20T12:40:44;27.12;50.53
66740;DHT22;53653;52.188;8.602;2022-08-20T12:43:09;26.98;50.59
66740;DHT22;53653;52.188;8.602;2022-08-20T12:45:35;26.92;50.83
66740;DHT22;53653;52.188;8.602;2022-08-20T12:48:05;26.64;50.54
66740;DHT22;53653;52.188;8.602;2022-08-20T12:50:31;26.40;50.30
66740;DHT22;53653;52.188;8.602;2022-08-20T12:52:57;26.93;47.66
66740;DHT22;53653;52.188;8.602;2022-08-20T12:55:23;27.36;47.34
66740;DHT22;53653;52.188;8.602;2022-08-20T12:57:54;27.64;46.39
66740;DHT22;53653;52.188;8.602;2022-08-20T13:00:24;27.94;46.14
66740;DHT22;53653;52.188;8.602;2022-08-20T13:02:52;27.71;47.35
66740;DHT22;53653;52.188;8.602;2022-08-20T13:05:18;27.44;47.91
66740;DHT22;53653;52.188;8.602;2022-08-20T13:07:45;26.58;49.32
66740;DHT22;53653;52.188;8.602;2022-08-20T13:10:17;25.90;50.55
66740;DHT22;53653;52.188;8.602;2022-08-20T13:12:43;25.87;51.78
66740;DHT22;53653;52.188;8.602;2022-08-20T13:15:09;26.25;50.93
66740;DHT22;53653;52.188;8.602;2022-08-20T13:17:35;26.55;49.44
66740;DHT22;53653;52.188;8.602;2022-08-20T13:20:00;26.79;48.36
66740;DHT22;53653;52.188;8.602;2022-08-20T13:22:26;27.23;48.92
66740;DHT22;53653;52.188;8.602;2022-08-20T13:24:51;27.06;48.88
66740;DHT22;53653;52.188;8.602;2022-08-20T13:27:18;26.99;47.57
66740;DHT22;53653;52.188;8.602;2022-08-20T13:29:48;26.76;48.53
66740;DHT22;53653;52.188;8.602;2022-08-20T13:32:14;26.67;48.10
66740;DHT22;53653;52.188;8.602;2022-08-20T13:34:41;26.08;48.29
66740;DHT22;53653;52.188;8.602;2022-08-20T13:37:17;26.27;48.09
66740;DHT22;53653;52.188;8.602;2022-08-20T13:39:45;26.08;49.40
66740;DHT22;53653;52.188;8.602;2022-08-20T13:42:11;26.35;49.88
66740;DHT22;53653;52.188;8.602;2022-08-20T13:44:38;26.51;50.65
66740;DHT22;53653;52.188;8.602;2022-08-20T13:47:22;26.67;50.06
66740;DHT22;53653;52.188;8.602;2022-08-20T13:49:55;26.82;49.36
66740;DHT22;53653;52.188;8.602;2022-08-20T13:52:21;26.73;49.30
66740;DHT22;53653;52.188;8.602;2022-08-20T13:54:46;26.88;48.62
66740;DHT22;53653;52.188;8.602;2022-08-20T13:57:14;26.54;47.86
66740;DHT22;53653;52.188;8.602;2022-08-20T13:59:43;26.52;48.72
66740;DHT22;53653;52.188;8.602;2022-08-20T14:02:10;26.10;49.33
66740;DHT22;53653;52.188;8.602;2022-08-20T14:04:36;26.16;50.04
66740;DHT22;53653;52.188;8.602;2022-08-20T14:09:37;26.17;49.98
66740;DHT22;53653;52.188;8.602;2022-08-20T14:12:03;26.10;49.54
66740;DHT22;53653;52.188;8.602;2022-08-20T14:14:29;25.97;50.11
66740;DHT22;53653;52.188;8.602;2022-08-20T14:16:54;25.93;50.89
66740;DHT22;53653;52.188;8.602;2022-08-20T14:19:19;25.82;51.36
66740;DHT22;53653;52.188;8.602;2022-08-20T14:21:45;25.70;51.93
66740;DHT22;53653;52.188;8.602;2022-08-20T14:24:10;25.35;52.19
66740;DHT22;53653;52.188;8.602;2022-08-20T14:26:36;25.46;53.01
66740;DHT22;53653;52.188;8.602;2022-08-20T14:29:01;25.73;52.22
66740;DHT22;53653;52.188;8.602;2022-08-20T14:31:29;25.83;51.80
66740;DHT22;53653;52.188;8.602;2022-08-20T14:33:55;25.83;51.86
66740;DHT22;53653;52.188;8.602;2022-08-20T14:36:20;25.70;51.39
66740;DHT22;53653;52.188;8.602;2022-08-20T14:38:45;25.37;53.04
66740;DHT22;53653;52.188;8.602;2022-08-20T14:41:11;25.19;53.36
66740;DHT22;53653;52.188;8.602;2022-08-20T14:43:38;25.38;52.74
66740;DHT22;53653;52.188;8.602;2022-08-20T14:46:04;25.35;52.87
66740;DHT22;53653;52.188;8.602;2022-08-20T14:48:29;25.34;52.16
66740;DHT22;53653;52.188;8.602;2022-08-20T14:50:55;25.15;52.35
66740;DHT22;53653;52.188;8.602;2022-08-20T14:53:20;25.12;53.27
66740;DHT22;53653;52.188;8.602;2022-08-20T14:55:46;25.18;52.61
66740;DHT22;53653;52.188;8.602;2022-08-20T14:58:13;25.19;52.38
66740;DHT22;53653;52.188;8.602;2022-08-20T15:00:41;25.11;53.06
66740;DHT22;53653;52.188;8.602;2022-08-20T15:03:07;24.88;52.77
66740;DHT22;53653;52.188;8.602;2022-08-20T15:05:33;24.64;53.64
66740;DHT22;53653;52.188;8.602;2022-08-20T15:07:59;24.81;52.66
66740;DHT22;53653;52.188;8.602;2022-08-20T15:10:28;24.80;53.47
66740;DHT22;53653;52.188;8.602;2022-08-20T15:12:54;24.86;52.92
66740;DHT22;53653;52.188;8.602;2022-08-20T15:15:20;24.98;51.89
66740;DHT22;53653;52.188;8.602;2022-08-20T15:17:49;24.90;51.86
66740;DHT22;53653;52.188;8.602;2022-08-20T15:20:17;24.92;51.50
66740;DHT22;53653;52.188;8.602;2022-08-20T15:22:42;24.90;52.40
66740;DHT22;53653;52.188;8.602;2022-08-20T15:25:14;24.79;51.53
66740;DHT22;53653;52.188;8.602;2022-08-20T15:27:40;24.63;51.21
66740;DHT22;53653;52.188;8.602;2022-08-20T15:30:14;24.69;50.92
66740;DHT22;53653;52.188;8.602;2022-08-20T15:32:40;24.60;51.52
66740;DHT22;53653;52.188;8.602;2022-08-20T15:35:06;24.61;50.98
66740;DHT22;53653;52.188;8.602;2022-08-20T15:37:38;24.57;51.18
66740;DHT22;53653;52.188;8.602;2022-08-20T15:40:04;24.76;50.83
66740;DHT22;53653;52.188;8.602;2022-08-20T15:42:32;24.88;49.67
66740;DHT22;53653;52.188;8.602;2022-08-20T15:44:57;24.86;49.60